Flight Track Log - Related Links

Times and Time Zones

All times are in EDT time to prevent confusion due to time zone crossing. See the ABX803 flight status page for this flight to view local times or setup timezone preferences in your user account.

Time Position Orientation Groundspeed Altitude Reporting Facility
EDT Latitude Longitude Course Direction KTS MPH feet Rate Location/Type
Fri 05:08:52 AM 39.0450 -84.7310 272° West 195 224 2,700  Level FlightAware ADS-B
Fri 05:09:10 AM 39.0450 -84.7530 270° West 218 251 3,000 1,333 Climbing FlightAware ADS-B
Fri 05:09:28 AM 39.0460 -84.7780 273° West 238 274 3,500 2,262 Climbing FlightAware ADS-B
Fri 05:10:11 AM 39.0450 -84.8170 268° West 261 300 5,300 2,444 Climbing FlightAware ADS-B
Fri 05:10:22 AM 39.0460 -84.8540 272° West 263 303 5,700 649 Climbing FlightAware ADS-B
Fri 05:10:48 AM 39.0460 -84.8890 270° West 263 303 5,700 1,645 Level FlightAware ADS-B
Fri 05:11:24 AM 39.0460 -84.8900 270° West 271 312 7,400 2,548 Climbing FlightAware ADS-B
Fri 05:14:27 AM 39.1710 -85.3000 292° West 383 441 15,000 2,036 Climbing FlightAware ADS-B
Fri 05:15:08 AM 39.1970 -85.3720 295° West 383 441 15,000  Level FlightAware ADS-B
Fri 05:15:44 AM 39.2200 -85.4360 295° West 383 441 15,000  Level FlightAware ADS-B
Fri 05:16:20 AM 39.2420 -85.4990 294° West 383 441 15,000  Level FlightAware ADS-B
Fri 05:16:56 AM 39.2650 -85.5630 295° West 383 441 15,000 4,744 Level FlightAware ADS-B
Fri 05:17:46 AM 39.3790 -85.7030 317° Northwest 445 512 21,800 6,545 Climbing FlightAware ADS-B
Fri 05:18:02 AM 39.3840 -85.7430 279° West 452 520 22,200 1,837 Climbing FlightAware ADS-B
Fri 05:18:35 AM 39.3840 -85.8340 270° West 458 527 23,300 1,800 Climbing FlightAware ADS-B
Fri 05:19:12 AM 39.3830 -85.9380 269° West 469 540 24,300 1,606 Climbing FlightAware ADS-B
Fri 05:19:46 AM 39.3820 -86.0330 269° West 476 548 25,200 1,518 Climbing FlightAware ADS-B
Fri 05:20:35 AM 39.3870 -86.1740 273° West 482 555 26,400 1,482 Climbing FlightAware ADS-B
Fri 05:21:11 AM 39.3970 -86.2790 277° West 485 558 27,300 1,739 Climbing FlightAware ADS-B
Fri 05:21:44 AM 39.4030 -86.3710 275° West 484 557 28,400 2,118 Climbing FlightAware ADS-B
Fri 05:22:02 AM 39.3980 -86.4230 263° West 487 560 29,100 2,036 Climbing FlightAware ADS-B
Fri 05:22:40 AM 39.3660 -86.5270 248° West 480 552 30,300 1,865 Climbing FlightAware ADS-B
Fri 05:23:16 AM 39.3460 -86.6280 256° West 476 548 31,400 1,417 Climbing FlightAware ADS-B
Fri 05:23:52 AM 39.3340 -86.7270 261° West 470 541 32,000 618 Climbing FlightAware ADS-B
Fri 05:24:24 AM 39.3320 -86.8170 268° West 469 540 32,100 522 Climbing FlightAware ADS-B
Fri 05:25:01 AM 39.3310 -86.9200 269° West 469 540 32,600 943 Climbing FlightAware ADS-B
Fri 05:25:34 AM 39.3310 -87.0130 270° West 470 541 33,200 1,083 Climbing FlightAware ADS-B
Fri 05:26:13 AM 39.3320 -87.1180 271° West 468 539 33,900 686 Climbing FlightAware ADS-B
Fri 05:26:44 AM 39.3320 -87.2080 270° West 467 537 34,000 88 Climbing FlightAware ADS-B
Fri 05:27:21 AM 39.3320 -87.3100 270° West 457 526 34,000  Level FlightAware ADS-B
Fri 05:27:55 AM 39.3330 -87.4030 271° West 455 524 34,000  Level FlightAware ADS-B
Fri 05:28:29 AM 39.3340 -87.4960 271° West 455 524 34,000  Level FlightAware ADS-B
Fri 05:29:02 AM 39.3350 -87.5830 271° West 457 526 34,000  Level FlightAware ADS-B
Fri 05:29:41 AM 39.3360 -87.6930 271° West 458 527 34,000  Level FlightAware ADS-B
Fri 05:30:14 AM 39.3370 -87.7800 271° West 458 527 34,000  Level FlightAware ADS-B
Fri 05:30:50 AM 39.3380 -87.8820 271° West 458 527 34,000  Level FlightAware ADS-B
Fri 05:31:24 AM 39.3380 -87.9740 270° West 459 528 34,000  Level FlightAware ADS-B
Fri 05:32:01 AM 39.3390 -88.0730 271° West 459 528 34,000  Level FlightAware ADS-B
Fri 05:32:36 AM 39.3370 -88.1690 268° West 460 529 34,000  Level FlightAware ADS-B
Fri 05:33:18 AM 39.3340 -88.2860 268° West 460 529 34,000  Level FlightAware ADS-B
Fri 05:33:53 AM 39.3310 -88.3800 268° West 460 529 34,000  Level FlightAware ADS-B
Fri 05:34:30 AM 39.3280 -88.4820 268° West 460 529 34,000  Level FlightAware ADS-B
Fri 05:34:58 AM 39.3250 -88.5600 267° West 460 529 34,000  Level FlightAware ADS-B
Fri 05:35:29 AM 39.3220 -88.6430 267° West 460 529 34,000  Level FlightAware ADS-B
Fri 05:36:04 AM 39.3200 -88.7420 269° West 460 529 34,000  Level FlightAware ADS-B
Fri 05:36:42 AM 39.3160 -88.8450 267° West 460 529 34,000  Level FlightAware ADS-B
Fri 05:37:15 AM 39.3140 -88.9320 268° West 460 529 34,000  Level FlightAware ADS-B
Fri 05:37:51 AM 39.3110 -89.0340 268° West 459 528 34,000  Level FlightAware ADS-B
Fri 05:38:24 AM 39.3080 -89.1250 268° West 459 528 34,000  Level FlightAware ADS-B
Fri 05:39:00 AM 39.3050 -89.2190 268° West 459 528 34,000  Level FlightAware ADS-B
Fri 05:39:37 AM 39.3020 -89.3170 268° West 459 528 34,000  Level FlightAware ADS-B
Fri 05:40:11 AM 39.2980 -89.4080 267° West 458 527 34,000  Level FlightAware ADS-B
Fri 05:40:53 AM 39.2940 -89.5320 268° West 458 527 34,000  Level FlightAware ADS-B
Fri 05:41:25 AM 39.2910 -89.6170 267° West 458 527 34,000  Level FlightAware ADS-B
Fri 05:42:06 AM 39.2860 -89.7260 267° West 457 526 34,000  Level FlightAware ADS-B
Fri 05:42:38 AM 39.2830 -89.8190 268° West 456 525 34,000  Level FlightAware ADS-B
Fri 05:43:10 AM 39.2790 -89.8990 266° West 455 524 34,000  Level FlightAware ADS-B
Fri 05:43:50 AM 39.2750 -90.0120 267° West 453 521 34,000  Level FlightAware ADS-B
Fri 05:44:25 AM 39.2710 -90.1040 267° West 452 520 34,000  Level FlightAware ADS-B
Fri 05:44:58 AM 39.2670 -90.1910 267° West 452 520 34,000  Level FlightAware ADS-B
Fri 05:45:34 AM 39.2630 -90.2890 267° West 452 520 34,000  Level FlightAware ADS-B
Fri 05:46:09 AM 39.2580 -90.3840 266° West 452 520 34,000  Level FlightAware ADS-B
Fri 05:46:41 AM 39.2540 -90.4700 267° West 451 519 34,000  Level FlightAware ADS-B
Fri 05:47:18 AM 39.2490 -90.5720 266° West 451 519 34,000  Level FlightAware ADS-B
Fri 05:47:54 AM 39.2450 -90.6680 267° West 451 519 34,000  Level FlightAware ADS-B
Fri 05:48:30 AM 39.2400 -90.7650 266° West 451 519 34,000  Level FlightAware ADS-B
Fri 05:49:06 AM 39.2350 -90.8620 266° West 451 519 34,000  Level FlightAware ADS-B
Fri 05:49:42 AM 39.2300 -90.9570 266° West 453 521 34,000  Level FlightAware ADS-B
Fri 05:50:14 AM 39.2250 -91.0430 266° West 453 521 34,000  Level FlightAware ADS-B
Fri 05:50:49 AM 39.2190 -91.1390 265° West 454 522 34,000  Level FlightAware ADS-B
Fri 05:51:25 AM 39.2130 -91.2370 266° West 454 522 34,000  Level FlightAware ADS-B
Fri 05:52:00 AM 39.2070 -91.3330 265° West 455 524 34,000  Level FlightAware ADS-B
Fri 05:52:35 AM 39.2020 -91.4250 266° West 455 524 34,000  Level FlightAware ADS-B
Fri 05:53:11 AM 39.1960 -91.5240 266° West 456 525 34,000  Level FlightAware ADS-B
Fri 05:53:44 AM 39.1910 -91.6120 266° West 456 525 34,000  Level FlightAware ADS-B
Fri 05:54:19 AM 39.1850 -91.6990 265° West 456 525 34,000  Level FlightAware ADS-B
Fri 05:54:54 AM 39.1790 -91.8020 266° West 457 526 34,000  Level FlightAware ADS-B
Fri 05:55:31 AM 39.1730 -91.9010 266° West 458 527 34,000  Level FlightAware ADS-B
Fri 05:56:07 AM 39.1660 -92.0010 265° West 459 528 34,000  Level FlightAware ADS-B
Fri 05:56:37 AM 39.1610 -92.0840 266° West 460 529 34,000  Level FlightAware ADS-B
Fri 05:57:14 AM 39.1550 -92.1840 266° West 461 531 34,000  Level FlightAware ADS-B
Fri 05:57:51 AM 39.1480 -92.2850 265° West 462 532 34,000  Level FlightAware ADS-B
Fri 05:58:24 AM 39.1420 -92.3750 265° West 463 533 34,000  Level FlightAware ADS-B
Fri 05:59:00 AM 39.1350 -92.4740 265° West 462 532 34,000  Level FlightAware ADS-B
Fri 05:59:37 AM 39.1280 -92.5750 265° West 463 533 34,000  Level FlightAware ADS-B
Fri 06:00:08 AM 39.1220 -92.6590 265° West 462 532 34,000  Level FlightAware ADS-B
Fri 06:00:45 AM 39.1150 -92.7600 265° West 463 533 34,000  Level FlightAware ADS-B
Fri 06:01:19 AM 39.1080 -92.8560 265° West 463 533 34,000  Level FlightAware ADS-B
Fri 06:01:53 AM 39.1010 -92.9490 264° West 463 533 34,000  Level FlightAware ADS-B
Fri 06:02:29 AM 39.0940 -93.0440 265° West 463 533 34,000  Level FlightAware ADS-B
Fri 06:03:05 AM 39.0860 -93.1450 264° West 463 533 34,000  Level FlightAware ADS-B
Fri 06:03:38 AM 39.0790 -93.2320 264° West 462 532 34,000  Level FlightAware ADS-B
Fri 06:04:14 AM 39.0710 -93.3320 264° West 462 532 34,000  Level FlightAware ADS-B
Fri 06:04:51 AM 39.0630 -93.4330 264° West 461 531 34,000  Level FlightAware ADS-B
Fri 06:05:26 AM 39.0550 -93.5320 264° West 461 531 34,000  Level FlightAware ADS-B
Fri 06:05:59 AM 39.0480 -93.6200 264° West 460 529 34,000  Level FlightAware ADS-B
Fri 06:06:34 AM 39.0400 -93.7150 264° West 459 528 34,000  Level FlightAware ADS-B
Fri 06:07:10 AM 39.0320 -93.8130 264° West 458 527 34,000  Level FlightAware ADS-B
Fri 06:07:43 AM 39.0242 -93.9036 264° West 458 527 34,000  Level FlightAware ADS-B
Fri 06:08:19 AM 39.0158 -94.0005 264° West 457 526 34,000  Level FlightAware ADS-B
Fri 06:08:50 AM 39.0086 -94.0839 264° West 456 525 34,000  Level FlightAware ADS-B
Fri 06:09:23 AM 39.0009 -94.1718 264° West 456 525 34,000  Level FlightAware ADS-B
Fri 06:10:04 AM 38.9910 -94.2820 263° West 455 524 34,000  Level FlightAware ADS-B
Fri 06:10:27 AM 38.9853 -94.3456 263° West 456 525 34,000  Level FlightAware ADS-B
Fri 06:10:58 AM 38.9779 -94.4273 263° West 457 526 34,000  Level FlightAware ADS-B
Fri 06:11:32 AM 38.9695 -94.5196 263° West 458 527 34,000  Level FlightAware ADS-B
Fri 06:12:02 AM 38.9619 -94.6010 263° West 458 527 34,000  Level FlightAware ADS-B
Fri 06:12:33 AM 38.9544 -94.6834 263° West 459 528 34,000  Level FlightAware ADS-B
Fri 06:13:03 AM 38.9467 -94.7649 263° West 460 529 34,000  Level FlightAware ADS-B
Fri 06:13:33 AM 38.9389 -94.8465 263° West 461 531 34,000  Level FlightAware ADS-B
Fri 06:14:03 AM 38.9310 -94.9280 263° West 461 531 34,000  Level FlightAware ADS-B
Fri 06:14:33 AM 38.9231 -95.0097 263° West 463 533 34,000  Level FlightAware ADS-B
Fri 06:15:07 AM 38.9140 -95.1022 263° West 464 534 34,000  Level FlightAware ADS-B
Fri 06:15:51 AM 38.9022 -95.2209 263° West 464 534 34,000  Level FlightAware ADS-B
Fri 06:16:42 AM 38.8880 -95.3600 263° West 465 535 34,000  Level FlightAware ADS-B
Fri 06:17:01 AM 38.8828 -95.4136 263° West 467 537 34,000  Level FlightAware ADS-B
Fri 06:17:31 AM 38.8742 -95.4961 262° West 468 539 34,000  Level FlightAware ADS-B
Fri 06:18:01 AM 38.8654 -95.5789 262° West 469 540 34,000  Level FlightAware ADS-B
Fri 06:18:36 AM 38.8555 -95.6746 262° West 470 541 34,000  Level FlightAware ADS-B
Fri 06:19:06 AM 38.8467 -95.7586 262° West 471 542 34,000  Level FlightAware ADS-B
Fri 06:19:37 AM 38.8378 -95.8428 262° West 473 544 34,000  Level FlightAware ADS-B
Fri 06:20:09 AM 38.8282 -95.9320 262° West 474 545 34,000  Level FlightAware ADS-B
Fri 06:20:39 AM 38.8193 -96.0159 262° West 475 547 34,000  Level FlightAware ADS-B
Fri 06:21:11 AM 38.8095 -96.1057 262° West 476 548 34,000  Level FlightAware ADS-B
Fri 06:21:43 AM 38.7999 -96.1939 262° West 478 550 34,000  Level FlightAware ADS-B
Fri 06:22:13 AM 38.7908 -96.2781 262° West 479 551 34,000  Level FlightAware ADS-B
Fri 06:22:43 AM 38.7815 -96.3632 262° West 479 551 34,000  Level FlightAware ADS-B
Fri 06:23:13 AM 38.7720 -96.4479 262° West 479 551 34,000  Level FlightAware ADS-B
Fri 06:23:43 AM 38.7626 -96.5330 262° West 480 552 34,000  Level FlightAware ADS-B
Fri 06:24:14 AM 38.7530 -96.6187 262° West 480 552 34,000  Level FlightAware ADS-B
Fri 06:24:52 AM 38.7410 -96.7260 262° West 479 551 34,000  Level FlightAware ADS-B
Fri 06:25:19 AM 38.7324 -96.8004 262° West 479 551 34,000  Level FlightAware ADS-B
Fri 06:25:54 AM 38.7212 -96.8987 262° West 479 551 34,000  Level FlightAware ADS-B
Fri 06:26:25 AM 38.7113 -96.9857 262° West 480 552 34,000  Level FlightAware ADS-B
Fri 06:26:55 AM 38.7013 -97.0706 261° West 479 551 34,000  Level FlightAware ADS-B
Fri 06:27:25 AM 38.6915 -97.1548 262° West 479 551 34,000  Level FlightAware ADS-B
Fri 06:27:55 AM 38.6816 -97.2398 262° West 478 550 34,000  Level FlightAware ADS-B
Fri 06:28:25 AM 38.6720 -97.3239 262° West 478 550 34,000  Level FlightAware ADS-B
Fri 06:28:56 AM 38.6618 -97.4088 261° West 478 550 34,000  Level FlightAware ADS-B
Fri 06:29:26 AM 38.6519 -97.4931 261° West 478 550 34,000  Level FlightAware ADS-B
Fri 06:29:56 AM 38.6418 -97.5771 261° West 478 550 34,000  Level FlightAware ADS-B
Fri 06:30:27 AM 38.6320 -97.6619 262° West 476 548 34,000  Level FlightAware ADS-B
Fri 06:30:57 AM 38.6219 -97.7454 261° West 475 547 34,000  Level FlightAware ADS-B
Fri 06:31:35 AM 38.6088 -97.8524 261° West 473 544 34,000  Level FlightAware ADS-B
Fri 06:32:07 AM 38.5982 -97.9395 261° West 470 541 34,000  Level FlightAware ADS-B
Fri 06:32:58 AM 38.5810 -98.0780 261° West 466 536 34,000  Level FlightAware ADS-B
Fri 06:33:36 AM 38.5690 -98.1810 262° West 465 535 34,000  Level FlightAware ADS-B
Fri 06:34:12 AM 38.5560 -98.2800 260° West 464 534 34,000  Level FlightAware ADS-B
Fri 06:34:46 AM 38.5450 -98.3700 261° West 463 533 34,000  Level FlightAware ADS-B
Fri 06:35:22 AM 38.5330 -98.4640 261° West 462 532 34,000  Level FlightAware ADS-B
Fri 06:36:10 AM 38.5160 -98.5990 261° West 461 531 34,000  Level FlightAware ADS-B
Fri 06:36:48 AM 38.5040 -98.6850 260° West 461 531 34,000  Level FlightAware ADS-B
Fri 06:37:24 AM 38.4930 -98.7670 260° West 461 531 34,000  Level FlightAware ADS-B
Fri 06:38:01 AM 38.4810 -98.8520 260° West 461 531 34,000  Level FlightAware ADS-B
Fri 06:38:37 AM 38.4700 -98.9340 260° West 461 531 34,000  Level FlightAware ADS-B
Fri 06:39:19 AM 38.4510 -99.1040 262° West 465 535 34,000  Level FlightAware ADS-B
Fri 06:39:54 AM 38.4390 -99.1980 261° West 467 537 34,000  Level FlightAware ADS-B
Fri 06:40:33 AM 38.4260 -99.2950 260° West 468 539 34,000  Level FlightAware ADS-B
Fri 06:41:09 AM 38.4140 -99.3790 260° West 468 539 34,000  Level FlightAware ADS-B
Fri 06:42:01 AM 38.3940 -99.5270 260° West 473 544 34,000  Level FlightAware ADS-B
Fri 06:42:38 AM 38.3810 -99.6130 259° West 473 544 34,000  Level FlightAware ADS-B
Fri 06:43:14 AM 38.3680 -99.6970 259° West 473 544 34,000  Level FlightAware ADS-B
Fri 06:43:51 AM 38.3550 -99.7830 259° West 473 544 34,000  Level FlightAware ADS-B
Fri 06:44:27 AM 38.3420 -99.8670 259° West 473 544 34,000  Level FlightAware ADS-B
Fri 06:45:04 AM 38.3290 -99.9530 259° West 473 544 34,000  Level FlightAware ADS-B
Fri 06:45:40 AM 38.3160 -100.0370 259° West 473 544 34,000  Level FlightAware ADS-B
Fri 06:46:18 AM 38.3030 -100.1250 259° West 473 544 34,000  Level FlightAware ADS-B
Fri 06:46:54 AM 38.2900 -100.2090 259° West 473 544 34,000  Level FlightAware ADS-B
Fri 06:47:30 AM 38.2770 -100.2930 259° West 473 544 34,000  Level FlightAware ADS-B
Fri 06:48:08 AM 38.2640 -100.3810 259° West 473 544 34,000  Level FlightAware ADS-B
Fri 06:48:44 AM 38.2510 -100.4650 259° West 473 544 34,000  Level FlightAware ADS-B
Fri 06:49:18 AM 38.2390 -100.5440 259° West 473 544 34,000  Level FlightAware ADS-B
Fri 06:49:54 AM 38.2260 -100.6280 259° West 473 544 34,000  Level FlightAware ADS-B
Fri 06:50:30 AM 38.2130 -100.7110 259° West 473 544 34,000  Level FlightAware ADS-B
Fri 06:51:06 AM 38.2000 -100.7950 259° West 473 544 34,000  Level FlightAware ADS-B
Fri 06:52:03 AM 38.1653 -101.1664 259° West 466 536 34,000  Level Denver Center
Fri 06:53:03 AM 38.1392 -101.3469 260° West 469 540 34,000  Level Denver Center
Fri 06:54:03 AM 38.1167 -101.5014 260° West 467 537 34,000  Level Denver Center
Fri 06:55:04 AM 38.0936 -101.6558 259° West 468 539 34,000  Level Denver Center
Fri 06:56:04 AM 38.0697 -101.8108 259° West 470 541 34,000  Level Denver Center
Fri 06:57:04 AM 38.0419 -101.9919 259° West 470 541 34,000  Level Denver Center
Fri 06:58:04 AM 38.0186 -102.1478 259° West 472 543 34,000  Level Denver Center
Fri 06:59:04 AM 37.9931 -102.3033 258° West 471 542 34,000  Level Denver Center
Fri 07:00:04 AM 37.9681 -102.4667 259° West 474 545 34,000  Level Denver Center
Fri 07:01:05 AM 37.9367 -102.6506 258° West 479 551 34,000  Level Denver Center
Fri 07:02:05 AM 37.9125 -102.8058 259° West 472 543 34,000  Level Denver Center
Fri 07:03:05 AM 37.8872 -102.9625 258° West 474 545 34,000  Level Denver Center
Fri 07:04:05 AM 37.8594 -103.1183 257° West 476 548 34,000  Level Denver Center
Fri 07:05:05 AM 37.8289 -103.2994 258° West 472 543 34,000  Level Denver Center
Fri 07:06:05 AM 37.8014 -103.4553 257° West 474 545 34,000  Level Denver Center
Fri 07:07:06 AM 37.7747 -103.6094 258° West 471 542 34,000  Level Denver Center
Fri 07:08:06 AM 37.7453 -103.7903 258° West 473 544 34,000  Level Denver Center
Fri 07:09:06 AM 37.7208 -103.9450 259° West 474 545 34,000  Level Denver Center
Fri 07:10:06 AM 37.6944 -104.0994 258° West 478 550 34,000  Level Denver Center
Fri 07:11:06 AM 37.6628 -104.2794 258° West 478 550 34,000  Level Denver Center
Fri 07:12:06 AM 37.6358 -104.4350 258° West 477 549 34,000  Level Denver Center
Fri 07:13:06 AM 37.6078 -104.5903 257° West 476 548 34,000  Level Denver Center
Fri 07:14:07 AM 37.5767 -104.7706 258° West 474 545 34,000  Level Denver Center
Fri 07:15:07 AM 37.5478 -104.9258 257° West 475 547 34,000  Level Denver Center
Fri 07:16:07 AM 37.5200 -105.0806 257° West 473 544 34,000  Level Denver Center
Fri 07:17:07 AM 37.4919 -105.2356 257° West 474 545 34,000  Level Denver Center
Fri 07:18:07 AM 37.4578 -105.4178 257° West 477 549 34,000  Level Denver Center
Fri 07:19:07 AM 37.4278 -105.5708 256° West 474 545 34,000  Level Denver Center
Fri 07:20:08 AM 37.3983 -105.7278 257° West 477 549 34,000  Level Denver Center
Fri 07:25:59 AM 37.2270 -106.6790 257° West 479 551 34,000  Level FlightAware ADS-B
Fri 07:26:34 AM 37.2080 -106.7720 256° West 479 551 34,000  Level FlightAware ADS-B
Fri 07:27:09 AM 37.1890 -106.8650 256° West 479 551 34,000  Level FlightAware ADS-B
Fri 07:27:39 AM 37.1740 -106.9480 257° West 479 551 34,000  Level FlightAware ADS-B
Fri 07:28:19 AM 37.1530 -107.0550 256° West 481 554 34,000  Level FlightAware ADS-B
Fri 07:28:54 AM 37.1350 -107.1490 257° West 481 554 34,000  Level FlightAware ADS-B
Fri 07:29:24 AM 37.1190 -107.2300 256° West 481 554 34,000  Level FlightAware ADS-B
Fri 07:30:04 AM 37.0980 -107.3340 256° West 481 554 34,000  Level FlightAware ADS-B
Fri 07:30:39 AM 37.0780 -107.4330 256° West 482 555 34,000  Level FlightAware ADS-B
Fri 07:31:14 AM 37.0580 -107.5280 255° West 482 555 34,000  Level FlightAware ADS-B
Fri 07:31:54 AM 37.0350 -107.6370 255° West 482 555 34,000  Level FlightAware ADS-B
Fri 07:32:29 AM 37.0150 -107.7320 255° West 483 556 34,000  Level FlightAware ADS-B
Fri 07:33:04 AM 36.9950 -107.8250 255° West 482 555 34,000  Level FlightAware ADS-B
Fri 07:33:39 AM 36.9740 -107.9190 254° West 482 555 34,000  Level FlightAware ADS-B
Fri 07:34:14 AM 36.9540 -108.0110 255° West 482 555 34,000  Level FlightAware ADS-B
Fri 07:34:49 AM 36.9330 -108.1080 255° West 482 555 34,000  Level FlightAware ADS-B
Fri 07:35:24 AM 36.9130 -108.2020 255° West 482 555 34,000  Level FlightAware ADS-B
Fri 07:35:59 AM 36.8920 -108.2960 254° West 481 554 34,000  Level FlightAware ADS-B
Fri 07:36:34 AM 36.8720 -108.3890 255° West 481 554 34,000  Level FlightAware ADS-B
Fri 07:37:09 AM 36.8510 -108.4830 254° West 480 552 34,000  Level FlightAware ADS-B
Fri 07:37:44 AM 36.8300 -108.5750 254° West 480 552 34,000  Level FlightAware ADS-B
Fri 07:38:19 AM 36.8090 -108.6690 254° West 479 551 34,000  Level FlightAware ADS-B
Fri 07:38:54 AM 36.7890 -108.7600 255° West 478 550 34,000  Level FlightAware ADS-B
Fri 07:39:29 AM 36.7690 -108.8450 254° West 479 551 34,000  Level FlightAware ADS-B
Fri 07:40:06 AM 36.7500 -108.9290 254° West 479 551 34,000  Level FlightAware ADS-B
Fri 07:40:42 AM 36.7310 -109.0100 254° West 479 551 34,000  Level FlightAware ADS-B
Fri 07:41:18 AM 36.7130 -109.0920 255° West 479 551 34,000  Level FlightAware ADS-B
Fri 07:41:54 AM 36.6940 -109.1730 254° West 479 551 34,000  Level FlightAware ADS-B
Fri 07:42:31 AM 36.6750 -109.2570 254° West 479 551 34,000  Level FlightAware ADS-B
Fri 07:43:07 AM 36.6560 -109.3380 254° West 479 551 34,000  Level FlightAware ADS-B
Fri 07:43:43 AM 36.6370 -109.4190 254° West 479 551 34,000  Level FlightAware ADS-B
Fri 07:44:19 AM 36.6190 -109.5000 255° West 479 551 34,000  Level FlightAware ADS-B
Fri 07:44:55 AM 36.6000 -109.5820 254° West 479 551 34,000  Level FlightAware ADS-B
Fri 07:45:31 AM 36.5810 -109.6630 254° West 479 551 34,000  Level FlightAware ADS-B
Fri 07:46:07 AM 36.5630 -109.7440 255° West 479 551 34,000  Level FlightAware ADS-B
Fri 07:46:43 AM 36.5440 -109.8250 254° West 479 551 34,000  Level FlightAware ADS-B
Fri 07:47:19 AM 36.5250 -109.9060 254° West 479 551 34,000  Level FlightAware ADS-B
Fri 07:47:55 AM 36.5070 -109.9870 255° West 479 551 34,000  Level FlightAware ADS-B
Fri 07:48:31 AM 36.4290 -110.2890 252° West 479 551 34,000  Level FlightAware ADS-B
Fri 07:49:07 AM 36.4060 -110.3830 253° West 478 550 34,000  Level FlightAware ADS-B
Fri 07:49:43 AM 36.3830 -110.4790 253° West 478 550 34,000  Level FlightAware ADS-B
Fri 07:50:15 AM 36.3630 -110.5630 254° West 479 551 34,000  Level FlightAware ADS-B
Fri 07:50:53 AM 36.3390 -110.6630 253° West 478 550 34,000  Level FlightAware ADS-B
Fri 07:51:25 AM 36.3180 -110.7460 253° West 477 549 34,000  Level FlightAware ADS-B
Fri 07:52:01 AM 36.2960 -110.8400 254° West 476 548 34,000  Level FlightAware ADS-B
Fri 07:52:37 AM 36.2720 -110.9350 253° West 475 547 34,000  Level FlightAware ADS-B
Fri 07:53:09 AM 36.2520 -111.0170 253° West 476 548 34,000  Level FlightAware ADS-B
Fri 07:53:45 AM 36.2290 -111.1120 253° West 476 548 34,000  Level FlightAware ADS-B
Fri 07:54:22 AM 36.2060 -111.2050 253° West 476 548 34,000  Level FlightAware ADS-B
Fri 07:54:58 AM 36.1830 -111.3000 253° West 475 547 34,000  Level FlightAware ADS-B
Fri 07:55:29 AM 36.1620 -111.3820 252° West 475 547 34,000  Level FlightAware ADS-B
Fri 07:56:05 AM 36.1390 -111.4750 253° West 475 547 34,000  Level FlightAware ADS-B
Fri 07:56:41 AM 36.1150 -111.5710 253° West 474 545 34,000  Level FlightAware ADS-B
Fri 07:57:15 AM 36.0940 -111.6580 253° West 476 548 34,000  Level FlightAware ADS-B
Fri 07:57:49 AM 36.0700 -111.7460 251° West 475 547 34,000  Level FlightAware ADS-B
Fri 07:58:25 AM 36.0420 -111.8370 249° West 475 547 34,000  Level FlightAware ADS-B
Fri 07:59:01 AM 36.0110 -111.9280 247° West 473 544 34,000  Level FlightAware ADS-B
Fri 07:59:37 AM 35.9810 -112.0170 247° West 473 544 34,000  Level FlightAware ADS-B
Fri 08:00:13 AM 35.9510 -112.1030 247° West 472 543 34,000  Level FlightAware ADS-B
Fri 08:00:45 AM 35.9230 -112.1850 247° West 472 543 34,000  Level FlightAware ADS-B
Fri 08:01:19 AM 35.8940 -112.2690 247° West 472 543 34,000  Level FlightAware ADS-B
Fri 08:01:57 AM 35.8610 -112.3630 247° West 472 543 34,000  Level FlightAware ADS-B
Fri 08:02:29 AM 35.8340 -112.4420 247° West 473 544 34,000  Level FlightAware ADS-B
Fri 08:03:05 AM 35.8020 -112.5310 246° West 472 543 34,000  Level FlightAware ADS-B
Fri 08:03:41 AM 35.7710 -112.6200 247° West 471 542 34,000  Level FlightAware ADS-B
Fri 08:04:18 AM 35.7400 -112.7090 247° West 469 540 34,000  Level FlightAware ADS-B
Fri 08:04:50 AM 35.7120 -112.7890 247° West 469 540 34,000  Level FlightAware ADS-B
Fri 08:05:27 AM 35.6790 -112.8810 246° West 468 539 34,000  Level FlightAware ADS-B
Fri 08:05:59 AM 35.6520 -112.9590 247° West 466 536 34,000  Level FlightAware ADS-B
Fri 08:06:35 AM 35.6220 -113.0450 247° West 465 535 34,000  Level FlightAware ADS-B
Fri 08:07:11 AM 35.5920 -113.1340 248° West 464 534 34,000  Level FlightAware ADS-B
Fri 08:07:47 AM 35.5620 -113.2210 247° West 463 533 34,000  Level FlightAware ADS-B
Fri 08:08:19 AM 35.5350 -113.2990 247° West 462 532 34,000  Level FlightAware ADS-B
Fri 08:08:56 AM 35.5040 -113.3850 246° West 463 533 34,000  Level FlightAware ADS-B
Fri 08:09:31 AM 35.4740 -113.4720 247° West 463 533 34,000  Level FlightAware ADS-B
Fri 08:10:07 AM 35.4430 -113.5580 246° West 462 532 34,000  Level FlightAware ADS-B
Fri 08:10:39 AM 35.4160 -113.6340 246° West 460 529 34,000  Level FlightAware ADS-B
Fri 08:11:23 AM 35.3860 -113.7190 247° West 461 531 34,000  Level FlightAware ADS-B
Fri 08:11:59 AM 35.3490 -113.8220 246° West 460 529 34,000  Level FlightAware ADS-B
Fri 08:12:31 AM 35.3200 -113.9020 246° West 459 528 34,000  Level FlightAware ADS-B
Fri 08:13:08 AM 35.2900 -113.9840 246° West 458 527 34,000  Level FlightAware ADS-B
Fri 08:13:45 AM 35.2570 -114.0750 246° West 458 527 34,000  Level FlightAware ADS-B
Fri 08:14:17 AM 35.2290 -114.1510 246° West 458 527 34,000  Level FlightAware ADS-B
Fri 08:14:52 AM 35.2000 -114.2330 247° West 460 529 34,000  Level FlightAware ADS-B
Fri 08:15:28 AM 35.1680 -114.3240 247° West 462 532 34,000  Level FlightAware ADS-B
Fri 08:15:59 AM 35.1420 -114.3980 247° West 462 532 34,000  Level FlightAware ADS-B
Fri 08:16:37 AM 35.1100 -114.4900 247° West 464 534 34,000  Level FlightAware ADS-B
Fri 08:17:12 AM 35.0800 -114.5730 246° West 464 534 34,000  Level FlightAware ADS-B
Fri 08:17:49 AM 35.0480 -114.6630 247° West 465 535 34,000  Level FlightAware ADS-B
Fri 08:18:22 AM 35.0200 -114.7410 246° West 467 537 34,000  Level FlightAware ADS-B
Fri 08:18:57 AM 34.9890 -114.8250 246° West 466 536 34,000  Level FlightAware ADS-B
Fri 08:19:34 AM 34.9570 -114.9140 246° West 466 536 34,000  Level FlightAware ADS-B
Fri 08:20:07 AM 34.9280 -114.9930 246° West 465 535 34,000  Level FlightAware ADS-B
Fri 08:20:43 AM 34.8960 -115.0810 246° West 465 535 34,000  Level FlightAware ADS-B
Fri 08:21:18 AM 34.8650 -115.1640 246° West 463 533 34,000  Level FlightAware ADS-B
Fri 08:21:51 AM 34.8360 -115.2420 246° West 462 532 34,000  Level FlightAware ADS-B
Fri 08:22:27 AM 34.8040 -115.3280 246° West 461 531 34,000  Level FlightAware ADS-B
Fri 08:23:00 AM 34.7750 -115.4050 245° Southwest 461 531 34,000  Level FlightAware ADS-B
Fri 08:23:40 AM 34.7400 -115.4980 245° Southwest 461 531 34,000  Level FlightAware ADS-B
Fri 08:24:12 AM 34.7110 -115.5760 246° West 461 531 34,000  Level FlightAware ADS-B
Fri 08:24:47 AM 34.6800 -115.6570 245° Southwest 460 529 34,000  Level FlightAware ADS-B
Fri 08:25:29 AM 34.6440 -115.7560 246° West 461 531 34,000  Level FlightAware ADS-B
Fri 08:26:03 AM 34.6130 -115.8350 245° Southwest 461 531 34,000  Level FlightAware ADS-B
Fri 08:26:42 AM 34.5780 -115.9270 245° Southwest 461 531 34,000  Level FlightAware ADS-B
Fri 08:27:14 AM 34.5480 -116.0040 245° Southwest 462 532 34,000  Level FlightAware ADS-B
Fri 08:27:49 AM 34.5170 -116.0850 245° Southwest 463 533 34,000  Level FlightAware ADS-B
Fri 08:28:24 AM 34.4850 -116.1680 245° Southwest 464 534 34,000  Level FlightAware ADS-B
Fri 08:29:01 AM 34.4510 -116.2550 245° Southwest 465 535 34,000 -169 Level FlightAware ADS-B
Fri 08:29:35 AM 34.4200 -116.3360 245° Southwest 469 540 33,800 -1,304 Descending FlightAware ADS-B
Fri 08:30:10 AM 34.3870 -116.4190 244° Southwest 471 542 32,500 -2,914 Descending FlightAware ADS-B
Fri 08:30:45 AM 34.3550 -116.5020 245° Southwest 475 547 30,400 -3,167 Descending FlightAware ADS-B
Fri 08:31:22 AM 34.3200 -116.5900 244° Southwest 468 539 28,700 -2,696 Descending FlightAware ADS-B
Fri 08:31:54 AM 34.2900 -116.6670 245° Southwest 460 529 27,300 -2,597 Descending FlightAware ADS-B
Fri 08:32:29 AM 34.2590 -116.7470 245° Southwest 451 519 25,800 -2,620 Descending FlightAware ADS-B
Fri 08:33:05 AM 34.2270 -116.8280 244° Southwest 440 506 24,200 -2,522 Descending FlightAware ADS-B
Fri 08:33:38 AM 34.1980 -116.9000 244° Southwest 431 496 22,900 -2,400 Descending FlightAware ADS-B
Fri 08:34:15 AM 34.1680 -116.9770 245° Southwest 423 487 21,400 -2,583 Descending FlightAware ADS-B
Fri 08:34:50 AM 34.1380 -117.0540 245° Southwest 415 478 19,800 -2,250 Descending FlightAware ADS-B
Fri 08:35:27 AM 34.1080 -117.1290 244° Southwest 399 459 18,700 -1,412 Descending FlightAware ADS-B
Fri 08:35:58 AM 34.0810 -117.1890 241° Southwest 391 450 18,200 -971 Descending FlightAware ADS-B
Fri 08:36:35 AM 34.0590 -117.2650 251° West 393 452 17,600 -1,000 Descending FlightAware ADS-B
Fri 08:37:10 AM 34.0520 -117.3420 264° West 396 456 17,000 -1,048 Descending FlightAware ADS-B
Fri 08:37:38 AM 34.0470 -117.4020 264° West 392 451 16,500 -1,015 Descending FlightAware ADS-B
Fri 08:38:15 AM 34.0410 -117.4780 265° West 386 444 15,900 -1,068 Descending FlightAware ADS-B
Fri 08:38:51 AM 34.0340 -117.5580 264° West 383 441 15,200 -1,075 Descending FlightAware ADS-B
Fri 08:39:22 AM 34.0280 -117.6250 264° West 380 437 14,700 -794 Descending FlightAware ADS-B
Fri 08:39:59 AM 34.0210 -117.7050 264° West 381 438 14,300 -575 Descending FlightAware ADS-B
Fri 08:40:35 AM 34.0140 -117.7800 264° West 381 438 14,000 -696 Descending FlightAware ADS-B
Fri 08:41:08 AM 34.0110 -117.8490 267° West 377 434 13,500 -1,043 Descending FlightAware ADS-B
Fri 08:41:44 AM 34.0130 -117.9250 272° West 371 427 12,800 -1,183 Descending FlightAware ADS-B
Fri 08:42:19 AM 34.0160 -117.9970 273° West 351 404 12,100 -1,083 Descending FlightAware ADS-B
Fri 08:42:56 AM 34.0180 -118.0660 272° West 331 381 11,500 -1,043 Descending FlightAware ADS-B
Fri 08:43:28 AM 34.0200 -118.1240 272° West 323 372 10,900 -896 Descending FlightAware ADS-B
Fri 08:44:03 AM 34.0220 -118.1860 272° West 306 352 10,500 -649 Descending FlightAware ADS-B
Fri 08:44:42 AM 34.0230 -118.2490 271° West 280 322 10,100 -1,119 Descending FlightAware ADS-B
Fri 08:45:02 AM 34.0240 -118.2790 272° West 273 314 9,400 -2,250 Descending FlightAware ADS-B
Fri 08:45:22 AM 34.0250 -118.3090 272° West 273 314 8,600 -2,211 Descending FlightAware ADS-B
Fri 08:45:40 AM 34.0260 -118.3350 273° West 273 314 8,000 -1,463 Descending FlightAware ADS-B
Fri 08:46:03 AM 34.0270 -118.3710 272° West 269 310 7,600 -1,174 Descending FlightAware ADS-B
Fri 08:46:26 AM 34.0280 -118.4060 272° West 266 306 7,100 -612 Descending FlightAware ADS-B
Fri 08:46:52 AM 34.0290 -118.4430 272° West 248 285 7,100 -286 Level FlightAware ADS-B
Fri 08:47:08 AM 34.0300 -118.4650 273° West 243 280 6,900 -1,135 Descending FlightAware ADS-B
Fri 08:47:29 AM 34.0320 -118.4930 275° West 240 276 6,400 -1,610 Descending FlightAware ADS-B
Fri 08:47:49 AM 34.0330 -118.5200 273° West 240 276 5,800 -1,538 Descending FlightAware ADS-B
Fri 08:48:08 AM 34.0350 -118.5450 276° West 240 276 5,400 -1,050 Descending FlightAware ADS-B
Fri 08:48:29 AM 34.0370 -118.5730 275° West 239 275 5,100 -558 Descending FlightAware ADS-B
Fri 08:48:51 AM 34.0380 -118.6030 272° West 238 274 5,000 -581 Descending FlightAware ADS-B
Fri 08:49:00 AM 34.0360 -118.6150 259° West 235 270 4,800 -1,125 Descending FlightAware ADS-B
Fri 08:49:07 AM 34.0330 -118.6220 243° Southwest 233 268 4,700 -1,091 Descending FlightAware ADS-B
Fri 08:49:11 AM 34.0290 -118.6260 220° Southwest 231 266 4,600 -545 Descending FlightAware ADS-B
Fri 08:49:18 AM 34.0240 -118.6310 220° Southwest 227 261 4,600 -1,059 Level FlightAware ADS-B
Fri 08:49:28 AM 34.0130 -118.6350 197° South 224 258 4,300 -1,412 Descending FlightAware ADS-B
Fri 08:49:35 AM 34.0060 -118.6360 187° South 225 259 4,200 -1,286 Descending FlightAware ADS-B
Fri 08:49:56 AM 33.9850 -118.6310 169° South 222 255 3,700 -1,350 Descending FlightAware ADS-B
Fri 08:50:15 AM 33.9670 -118.6240 162° South 217 250 3,300 -1,400 Descending FlightAware ADS-B
Fri 08:50:26 AM 33.9590 -118.6170 144° Southeast 217 250 3,000 -474 Descending FlightAware ADS-B
Fri 08:50:53 AM 33.9410 -118.5990 140° Southeast 217 250 3,000 -1,347 Level FlightAware ADS-B
Fri 08:51:15 AM 33.9490 -118.5620 75° East 194 223 1,900 -1,375 Descending FlightAware ADS-B
Fri 08:51:41 AM 33.9510 -118.5390 84° East 194 223 1,900  Level FlightAware ADS-B
Fri 08:51:57 AM 33.9530 -118.5210 82° East 168 193 1,900 -450 Level FlightAware ADS-B
Fri 08:52:21 AM 33.9550 -118.5020 83° East 165 190 1,600 -778 Descending FlightAware ADS-B
Fri 08:52:51 AM 33.9570 -118.4730 85° East 145 167 1,200 -840 Descending FlightAware ADS-B
Fri 08:53:11 AM 33.9590 -118.4570 81° East 140 161 900 -769 Descending FlightAware ADS-B
Fri 08:53:30 AM 33.9600 -118.4420 85° East 143 165 700 -750 Descending FlightAware ADS-B
Fri 08:53:51 AM 33.9620 -118.4260 81° East 140 161 400 -381 Descending FlightAware ADS-B
Fri 08:54:33 AM 33.9650 -118.3970 83° East 136 157 300 -143 Descending FlightAware ADS-B

Login

Don't have an account? Register now (free) for customized features, flight alerts, and more!